createdAt,value
2017-10-02T00:01:09.224Z,83.00
2017-10-02T00:03:36.800Z,82.70
2017-10-02T00:06:04.337Z,82.80
2017-10-02T00:08:31.861Z,82.90
2017-10-02T00:10:59.404Z,82.90
2017-10-02T00:13:26.931Z,83.00
2017-10-02T00:15:54.469Z,83.10
2017-10-02T00:18:22.465Z,82.60
2017-10-02T00:20:50.008Z,82.60
2017-10-02T00:23:17.519Z,82.80
2017-10-02T00:25:46.249Z,83.00
2017-10-02T00:28:13.755Z,82.90
2017-10-02T00:30:41.643Z,82.90
2017-10-02T00:33:09.176Z,82.90
2017-10-02T00:35:36.689Z,82.90
2017-10-02T00:38:04.234Z,82.70
2017-10-02T00:40:31.772Z,82.70
2017-10-02T00:42:59.304Z,82.80
2017-10-02T00:45:26.803Z,82.30
2017-10-02T00:47:54.340Z,82.60
2017-10-02T00:50:21.920Z,82.50
2017-10-02T00:52:49.493Z,82.60
2017-10-02T00:55:17.039Z,82.30
2017-10-02T00:57:45.461Z,82.10
2017-10-02T01:00:12.989Z,82.10
2017-10-02T01:02:40.507Z,82.10
2017-10-02T01:05:08.049Z,82.00
2017-10-02T01:07:35.572Z,81.90
2017-10-02T01:10:03.103Z,81.70
2017-10-02T01:12:30.615Z,81.70
2017-10-02T01:14:58.140Z,81.30
2017-10-02T01:17:26.047Z,81.60
2017-10-02T01:19:53.599Z,81.60
2017-10-02T01:22:21.516Z,81.50
2017-10-02T01:24:49.455Z,81.50
2017-10-02T01:27:16.975Z,81.50
2017-10-02T01:29:44.879Z,81.40
2017-10-02T01:32:13.457Z,81.50
2017-10-02T01:34:41.965Z,81.50
2017-10-02T01:37:10.564Z,80.90
2017-10-02T01:39:38.150Z,80.90
2017-10-02T01:42:06.146Z,81.00
2017-10-02T01:44:33.693Z,81.00
2017-10-02T01:47:01.256Z,81.20
2017-10-02T01:49:28.782Z,80.50
2017-10-02T01:51:56.311Z,80.50
2017-10-02T01:54:24.243Z,80.50
2017-10-02T01:56:51.805Z,80.50
2017-10-02T01:59:19.351Z,80.40
2017-10-02T02:01:46.897Z,80.70
2017-10-02T02:04:14.446Z,80.70
2017-10-02T02:06:42.382Z,80.70
2017-10-02T02:09:10.679Z,80.70
2017-10-02T02:11:38.319Z,80.80
2017-10-02T02:14:05.868Z,81.00
2017-10-02T02:16:33.423Z,80.80
2017-10-02T02:19:00.945Z,80.80
2017-10-02T02:21:28.495Z,81.40
2017-10-02T02:23:56.056Z,81.60
2017-10-02T02:26:23.688Z,82.30
2017-10-02T02:28:51.236Z,83.00
2017-10-02T02:31:19.262Z,83.60
2017-10-02T02:33:46.804Z,83.60
2017-10-02T02:36:14.740Z,83.30
2017-10-02T02:38:42.318Z,83.30
2017-10-02T02:41:09.850Z,84.30
2017-10-02T02:43:37.378Z,84.30
2017-10-02T02:46:04.894Z,85.80
2017-10-02T02:48:32.425Z,86.30
2017-10-02T02:51:00.335Z,88.20
2017-10-02T02:53:27.893Z,88.20
2017-10-02T02:55:55.805Z,89.80
2017-10-02T02:58:23.343Z,89.80
2017-10-02T03:00:50.853Z,90.40
2017-10-02T03:03:18.761Z,91.40
2017-10-02T03:05:46.697Z,92.00
2017-10-02T03:08:14.234Z,92.00
2017-10-02T03:10:42.164Z,92.10
2017-10-02T03:13:09.709Z,92.00
2017-10-02T03:15:37.637Z,92.20
2017-10-02T03:18:05.146Z,92.30
2017-10-02T03:20:32.683Z,92.50
2017-10-02T03:23:00.196Z,92.40
2017-10-02T03:25:27.972Z,92.70
2017-10-02T03:27:55.484Z,92.50
2017-10-02T03:30:23.018Z,92.70
2017-10-02T03:32:50.560Z,92.60
2017-10-02T03:35:18.089Z,92.20
2017-10-02T03:37:45.634Z,92.40
2017-10-02T03:40:13.167Z,92.30
2017-10-02T03:42:40.690Z,92.50
2017-10-02T03:45:08.214Z,93.10
2017-10-02T03:47:36.163Z,93.00
2017-10-02T03:50:03.737Z,93.00
2017-10-02T03:52:31.336Z,93.00
2017-10-02T03:54:58.892Z,93.10
2017-10-02T03:57:26.421Z,93.40
2017-10-02T03:59:53.996Z,93.70
2017-10-02T04:02:21.535Z,94.20
2017-10-02T04:04:49.501Z,94.70
2017-10-02T04:07:17.046Z,94.70
2017-10-02T04:09:44.576Z,95.20
2017-10-02T04:12:13.383Z,95.70
2017-10-02T04:14:40.953Z,96.10
2017-10-02T04:17:08.494Z,96.30
2017-10-02T04:19:36.045Z,96.70
2017-10-02T04:22:03.983Z,97.40
2017-10-02T04:24:31.525Z,97.40
2017-10-02T04:26:59.100Z,97.50
2017-10-02T04:29:26.640Z,98.00
2017-10-02T04:31:54.246Z,98.00
2017-10-02T04:34:21.798Z,98.20
2017-10-02T04:36:49.376Z,98.30
2017-10-02T04:39:16.911Z,98.20
2017-10-02T04:41:44.484Z,98.50
2017-10-02T04:44:12.044Z,98.40
2017-10-02T04:46:39.619Z,98.40
2017-10-02T04:49:07.204Z,98.40
2017-10-02T04:51:34.836Z,98.60
2017-10-02T04:54:02.859Z,98.80
2017-10-02T04:56:30.436Z,98.70
2017-10-02T04:58:58.031Z,98.70
2017-10-02T05:01:26.000Z,98.60
2017-10-02T05:03:53.994Z,98.40
2017-10-02T05:06:21.545Z,98.40
2017-10-02T05:08:49.152Z,98.50
2017-10-02T05:11:16.732Z,98.70
2017-10-02T05:13:44.349Z,98.60
2017-10-02T05:16:11.944Z,98.60
2017-10-02T05:18:39.574Z,98.50
2017-10-02T05:21:07.244Z,98.60
2017-10-02T05:23:34.825Z,98.50
2017-10-02T05:26:02.830Z,98.40
2017-10-02T05:28:30.392Z,98.40
2017-10-02T05:30:58.372Z,98.40
2017-10-02T05:33:26.003Z,98.40
2017-10-02T05:35:53.597Z,98.20
2017-10-02T05:38:21.194Z,98.10
2017-10-02T06:54:58.635Z,98.20
2017-10-02T06:57:26.155Z,98.80
2017-10-02T06:59:53.715Z,98.70
2017-10-02T07:02:21.241Z,98.30
2017-10-02T07:04:48.773Z,98.10
2017-10-02T07:07:16.696Z,97.90
2017-10-02T07:09:44.260Z,97.90
2017-10-02T07:12:11.767Z,97.70
2017-10-02T07:14:39.348Z,97.50
2017-10-02T07:17:07.388Z,97.50
2017-10-02T07:19:34.903Z,97.50
2017-10-02T07:22:02.468Z,97.60
2017-10-02T07:24:30.397Z,97.60
2017-10-02T07:26:57.941Z,97.60
2017-10-02T07:29:25.864Z,97.40
2017-10-02T07:31:53.388Z,97.40
2017-10-02T07:34:20.904Z,97.30
2017-10-02T07:36:48.896Z,97.00
2017-10-02T07:39:16.824Z,96.80
2017-10-02T07:41:44.398Z,96.80
2017-10-02T07:44:11.971Z,96.80
2017-10-02T07:46:39.920Z,97.20
2017-10-02T07:49:07.479Z,97.10
2017-10-02T07:51:35.022Z,97.10
2017-10-02T07:54:02.992Z,97.50
2017-10-02T07:56:30.520Z,97.40
2017-10-02T07:58:58.087Z,97.40
2017-10-02T08:01:26.006Z,97.40
2017-10-02T08:03:53.519Z,97.40
2017-10-02T08:06:21.043Z,97.60
2017-10-02T08:08:48.951Z,97.10
2017-10-02T08:11:16.885Z,97.30
2017-10-02T08:13:44.401Z,97.30
2017-10-02T08:16:12.320Z,97.40
2017-10-02T08:18:39.869Z,97.40
2017-10-02T08:21:07.477Z,97.50
2017-10-02T08:23:35.104Z,97.40
2017-10-02T08:26:02.685Z,97.50
2017-10-02T08:28:30.214Z,97.40
2017-10-02T08:30:57.751Z,97.40
2017-10-02T08:33:25.313Z,97.40
2017-10-02T08:35:52.852Z,97.40
2017-10-02T08:38:20.410Z,97.60
2017-10-02T08:40:47.948Z,97.60
2017-10-02T08:43:15.498Z,97.80
2017-10-02T08:45:43.029Z,98.00
2017-10-02T08:48:10.578Z,97.90
2017-10-02T08:50:38.099Z,98.00
2017-10-02T08:53:05.641Z,98.00
2017-10-02T08:55:33.207Z,97.70
2017-10-02T08:58:01.131Z,97.60
2017-10-02T09:00:28.687Z,97.60
2017-10-02T09:02:56.610Z,98.00
2017-10-02T09:05:24.158Z,98.00
2017-10-02T09:07:51.699Z,98.00
2017-10-02T09:10:19.268Z,97.80
2017-10-02T09:12:46.803Z,98.00
2017-10-02T09:15:14.747Z,98.00
2017-10-02T09:17:42.302Z,98.20
2017-10-02T09:20:09.835Z,98.00
2017-10-02T09:22:37.391Z,98.00
2017-10-02T09:25:04.919Z,98.00
2017-10-02T09:27:32.478Z,98.00
2017-10-02T09:30:00.006Z,98.00
2017-10-02T09:32:27.597Z,98.00
2017-10-02T09:34:55.129Z,98.20
2017-10-02T09:37:22.667Z,98.40
2017-10-02T09:39:50.231Z,98.70
2017-10-02T09:42:18.164Z,98.90
2017-10-02T09:44:45.718Z,98.90
2017-10-02T09:47:13.692Z,99.10
2017-10-02T09:49:41.674Z,99.20
2017-10-02T09:52:09.230Z,99.30
2017-10-02T09:54:36.754Z,99.20
2017-10-02T09:57:04.697Z,99.00
2017-10-02T09:59:32.223Z,99.00
2017-10-02T10:01:59.770Z,98.90
2017-10-02T10:04:27.310Z,98.90
2017-10-02T10:06:54.855Z,98.70
2017-10-02T10:09:22.390Z,98.90
2017-10-02T10:11:49.977Z,98.90
2017-10-02T10:14:17.510Z,98.70
2017-10-02T10:16:45.040Z,98.60
2017-10-02T10:19:12.610Z,98.50
2017-10-02T10:21:40.533Z,98.00
2017-10-02T10:24:08.080Z,98.00
2017-10-02T10:26:36.026Z,98.10
2017-10-02T10:29:03.581Z,98.10
2017-10-02T10:31:31.142Z,97.90
2017-10-02T10:33:59.109Z,97.60
2017-10-02T10:36:26.636Z,97.60
2017-10-02T10:38:54.170Z,97.60
2017-10-02T10:41:21.759Z,97.10
2017-10-02T10:43:49.287Z,97.40
2017-10-02T10:46:17.225Z,97.20
2017-10-02T10:48:44.764Z,97.20
2017-10-02T10:51:12.762Z,97.60
2017-10-02T10:53:40.307Z,97.50
2017-10-02T10:56:07.854Z,97.70
2017-10-02T10:58:35.386Z,97.80
2017-10-02T11:01:02.952Z,97.20
2017-10-02T11:03:30.478Z,97.30
2017-10-02T11:05:58.001Z,97.40
2017-10-02T11:08:25.678Z,96.90
2017-10-02T11:10:53.229Z,97.50
2017-10-02T11:13:20.789Z,97.40
2017-10-02T11:15:48.321Z,97.50
2017-10-02T11:18:15.914Z,96.90
2017-10-02T11:20:43.441Z,96.70
2017-10-02T11:23:11.084Z,96.40
2017-10-02T11:25:38.617Z,95.70
2017-10-02T11:28:06.544Z,95.60
2017-10-02T11:30:34.102Z,95.60
2017-10-02T11:33:02.028Z,96.00
2017-10-02T11:35:29.577Z,96.00
2017-10-02T11:37:57.534Z,94.10
2017-10-02T11:40:25.082Z,94.10
2017-10-02T11:42:52.683Z,94.60
2017-10-02T11:45:20.333Z,95.70
2017-10-02T11:47:48.299Z,94.90
2017-10-02T11:50:15.835Z,94.90
2017-10-02T11:52:43.416Z,94.40
2017-10-02T11:55:10.947Z,91.30
2017-10-02T11:57:38.491Z,91.00
2017-10-02T12:00:06.029Z,91.70
2017-10-02T12:02:33.999Z,89.40
2017-10-02T12:05:01.521Z,89.40
2017-10-02T12:07:29.100Z,87.90
2017-10-02T12:09:57.031Z,84.70
2017-10-02T12:12:24.567Z,84.70
2017-10-02T12:14:52.121Z,83.60
2017-10-02T12:17:19.647Z,81.70
2017-10-02T12:19:47.592Z,78.70
2017-10-02T12:22:15.126Z,78.70
2017-10-02T12:24:42.687Z,79.40
2017-10-02T12:27:10.223Z,79.10
2017-10-02T12:29:37.765Z,78.40
2017-10-02T12:32:05.321Z,78.30
2017-10-02T12:34:33.097Z,77.30
2017-10-02T12:37:00.707Z,78.80
2017-10-02T12:39:28.238Z,78.10
2017-10-02T12:41:55.788Z,79.20
2017-10-02T12:44:23.740Z,76.30
2017-10-02T12:46:53.306Z,76.30
2017-10-02T12:49:20.851Z,77.30
2017-10-02T12:51:48.443Z,77.80
2017-10-02T12:54:15.986Z,75.40
2017-10-02T12:56:43.557Z,76.10
2017-10-02T12:59:11.091Z,74.50
2017-10-02T13:01:38.629Z,73.40
2017-10-02T13:04:07.029Z,74.60
2017-10-02T13:06:34.569Z,74.90
2017-10-02T13:09:02.131Z,73.20
2017-10-02T13:11:29.703Z,70.80
2017-10-02T13:13:57.264Z,70.50
2017-10-02T13:16:24.795Z,70.30
2017-10-02T13:18:52.369Z,71.50
2017-10-02T13:21:19.896Z,70.80
2017-10-02T13:23:47.476Z,69.80
2017-10-02T13:26:15.432Z,68.00
2017-10-02T13:28:42.970Z,68.00
2017-10-02T13:31:10.521Z,68.60
2017-10-02T13:33:38.158Z,68.90
2017-10-02T13:36:05.705Z,69.50
2017-10-02T13:38:33.229Z,69.70
2017-10-02T13:41:00.793Z,71.20
2017-10-02T13:43:28.335Z,71.20
2017-10-02T13:45:55.886Z,72.00
2017-10-02T13:48:23.434Z,72.00
2017-10-02T13:50:51.054Z,72.70
2017-10-02T13:56:14.648Z,72.30
2017-10-02T13:58:42.188Z,71.90
2017-10-02T14:01:09.731Z,71.00
2017-10-02T14:03:37.297Z,71.20
2017-10-02T14:06:05.217Z,72.10
2017-10-02T14:08:32.773Z,72.10
2017-10-02T14:11:00.309Z,71.30
2017-10-02T14:13:28.257Z,71.90
2017-10-02T14:15:55.806Z,71.90
2017-10-02T14:18:23.379Z,72.00
2017-10-02T14:20:50.910Z,72.40
2017-10-02T14:23:18.840Z,70.60
2017-10-02T14:25:46.406Z,70.60
2017-10-02T14:28:13.958Z,71.60
2017-10-02T14:30:41.519Z,71.50
2017-10-02T14:33:09.063Z,71.10
2017-10-02T14:35:36.631Z,71.60
2017-10-02T14:38:04.182Z,70.80
2017-10-02T14:40:31.718Z,70.00
2017-10-02T14:42:59.297Z,70.50
2017-10-02T14:45:26.824Z,71.30
2017-10-02T14:47:54.767Z,71.30
2017-10-02T14:50:22.397Z,71.30
2017-10-02T14:52:49.933Z,71.80
2017-10-02T14:55:18.034Z,71.60
2017-10-02T14:57:45.680Z,71.50
2017-10-02T15:00:13.258Z,72.00
2017-10-02T15:02:40.868Z,71.80
2017-10-02T15:05:08.586Z,71.80
2017-10-02T15:07:36.137Z,71.70
2017-10-02T15:10:03.796Z,72.40
2017-10-02T15:12:31.531Z,72.80
2017-10-02T15:14:59.090Z,72.40
2017-10-02T15:17:26.641Z,73.00
2017-10-02T15:19:54.645Z,72.30
2017-10-02T15:22:22.298Z,72.40
2017-10-02T15:24:49.865Z,72.40
2017-10-02T15:27:17.410Z,72.20
2017-10-02T15:29:44.942Z,72.40
2017-10-02T15:32:13.042Z,71.80
2017-10-02T15:34:40.590Z,71.80
2017-10-02T15:37:08.157Z,72.60
2017-10-02T15:39:35.721Z,73.00
2017-10-02T15:42:03.292Z,73.30
2017-10-02T15:44:32.135Z,73.20
2017-10-02T15:46:59.706Z,73.40
2017-10-02T15:49:27.254Z,74.10
2017-10-02T15:51:55.241Z,73.90
2017-10-02T15:54:23.247Z,74.20
2017-10-02T15:56:51.189Z,74.30
2017-10-02T15:59:18.820Z,74.30
2017-10-02T16:01:46.747Z,73.60
2017-10-02T16:04:14.319Z,73.70
2017-10-02T16:06:41.868Z,74.10
2017-10-02T16:09:09.469Z,74.10
2017-10-02T16:11:37.401Z,75.00
2017-10-02T16:14:04.961Z,75.00
2017-10-02T16:16:32.505Z,73.90
2017-10-02T16:19:00.118Z,74.00
2017-10-02T16:21:27.654Z,74.50
2017-10-02T16:23:55.200Z,73.50
2017-10-02T16:26:22.761Z,73.50
2017-10-02T16:28:50.701Z,73.50
2017-10-02T16:31:18.257Z,73.50
2017-10-02T16:33:45.786Z,72.90
2017-10-02T16:36:13.343Z,73.10
2017-10-02T16:38:40.903Z,73.10
2017-10-02T16:41:08.453Z,72.40
2017-10-02T16:43:35.981Z,72.70
2017-10-02T16:46:03.546Z,71.80
2017-10-02T16:48:31.512Z,72.60
2017-10-02T16:50:59.139Z,72.60
2017-10-02T16:53:27.201Z,72.40
2017-10-02T16:55:55.142Z,72.40
2017-10-02T16:58:22.746Z,72.40
2017-10-02T17:00:50.291Z,72.90
2017-10-02T17:03:17.872Z,73.20
2017-10-02T17:05:45.410Z,73.30
2017-10-02T17:08:13.753Z,73.00
2017-10-02T17:10:41.691Z,73.70
2017-10-02T17:13:09.261Z,73.70
2017-10-02T17:15:36.809Z,73.80
2017-10-02T17:18:04.742Z,74.00
2017-10-02T17:20:32.301Z,74.00
2017-10-02T17:22:59.868Z,74.10
2017-10-02T17:25:27.846Z,73.70
2017-10-02T17:27:55.386Z,73.70
2017-10-02T17:30:22.945Z,74.20
2017-10-02T17:32:50.490Z,73.90
2017-10-02T17:35:18.041Z,73.20
2017-10-02T17:37:45.579Z,73.60
2017-10-02T17:40:13.545Z,72.00
2017-10-02T17:42:41.084Z,72.10
2017-10-02T17:45:08.636Z,71.80
2017-10-02T17:47:36.227Z,71.80
2017-10-02T17:50:03.796Z,71.60
2017-10-02T17:52:32.078Z,71.30
2017-10-02T17:54:59.621Z,71.10
2017-10-02T17:57:27.173Z,71.20
2017-10-02T17:59:55.097Z,71.20
2017-10-02T18:02:22.650Z,71.20
2017-10-02T18:04:50.581Z,71.20
2017-10-02T18:07:18.302Z,71.20
2017-10-02T18:09:45.844Z,71.30
2017-10-02T18:12:13.465Z,71.70
2017-10-02T18:14:41.032Z,71.50
2017-10-02T18:17:08.629Z,71.20
2017-10-02T18:19:36.189Z,71.60
2017-10-02T18:22:03.899Z,71.90
2017-10-02T18:24:31.456Z,72.10
2017-10-02T18:26:59.126Z,72.30
2017-10-02T18:29:27.096Z,72.40
2017-10-02T18:31:54.641Z,72.40
2017-10-02T18:34:22.179Z,72.70
2017-10-02T18:36:50.144Z,73.50
2017-10-02T18:39:17.682Z,73.50
2017-10-02T18:41:45.258Z,73.50
2017-10-02T18:44:12.807Z,73.80
2017-10-02T18:46:40.433Z,73.90
2017-10-02T18:49:07.990Z,74.90
2017-10-02T18:51:35.949Z,74.90
2017-10-02T18:54:03.514Z,74.90
2017-10-02T18:56:31.048Z,74.90
2017-10-02T18:58:58.994Z,75.00
2017-10-02T19:01:26.537Z,75.00
2017-10-02T19:03:54.094Z,75.10
2017-10-02T19:06:21.640Z,75.60
2017-10-02T19:08:49.191Z,76.20
2017-10-02T19:11:17.116Z,76.40
2017-10-02T19:13:44.694Z,76.40
2017-10-02T19:16:12.260Z,77.10
2017-10-02T19:18:39.866Z,76.60
2017-10-02T19:21:07.420Z,76.70
2017-10-02T19:23:34.967Z,77.00
2017-10-02T19:26:02.519Z,77.10
2017-10-02T19:28:30.059Z,77.10
2017-10-02T19:30:58.052Z,77.30
2017-10-02T19:33:25.992Z,77.20
2017-10-02T19:35:53.548Z,77.20
2017-10-02T19:38:21.105Z,77.70
2017-10-02T19:40:48.655Z,77.60
2017-10-02T19:43:16.209Z,77.70
2017-10-02T19:45:43.763Z,77.80
2017-10-02T19:48:11.338Z,78.00
2017-10-02T19:50:38.922Z,78.30
2017-10-02T19:53:06.882Z,78.20
2017-10-02T19:55:34.435Z,78.20
2017-10-02T19:58:01.974Z,78.30
2017-10-02T20:00:29.548Z,78.40
2017-10-02T20:02:57.501Z,78.60
2017-10-02T20:05:25.067Z,78.60
2017-10-02T20:07:52.995Z,78.80
2017-10-02T20:10:20.554Z,78.80
2017-10-02T20:12:48.909Z,78.70
2017-10-02T20:15:16.884Z,78.50
2017-10-02T20:17:44.436Z,78.50
2017-10-02T20:20:11.974Z,78.80
2017-10-02T20:22:39.536Z,79.00
2017-10-02T20:25:07.122Z,79.20
2017-10-02T20:27:34.683Z,78.90
2017-10-02T20:30:02.221Z,78.70
2017-10-02T20:32:29.785Z,78.70
2017-10-02T20:34:57.307Z,78.80
2017-10-02T20:37:24.867Z,79.20
2017-10-02T20:39:52.414Z,79.10
2017-10-02T20:42:19.962Z,79.80
2017-10-02T20:44:47.913Z,79.90
2017-10-02T20:47:15.442Z,79.90
2017-10-02T20:49:43.395Z,80.90
2017-10-02T20:52:10.942Z,80.90
2017-10-02T20:54:38.518Z,81.40
2017-10-02T20:57:06.112Z,82.20
2017-10-02T20:59:33.671Z,83.10
2017-10-02T21:02:01.239Z,83.20
2017-10-02T21:04:28.814Z,82.60
2017-10-02T21:06:56.396Z,83.10
2017-10-02T21:09:23.944Z,82.60
2017-10-02T21:11:51.506Z,82.60
2017-10-02T21:14:19.044Z,83.20
2017-10-02T21:16:46.649Z,83.90
2017-10-02T21:19:14.586Z,84.50
2017-10-02T21:21:42.118Z,84.50
2017-10-02T21:24:09.675Z,84.30
2017-10-02T21:26:37.287Z,84.70
2017-10-02T21:29:04.833Z,85.40
2017-10-02T21:31:35.134Z,85.60
2017-10-02T21:34:03.081Z,87.00
2017-10-02T21:36:30.611Z,87.00
2017-10-02T21:38:58.663Z,87.70
2017-10-02T21:41:26.274Z,87.70
2017-10-02T21:43:53.846Z,88.80
2017-10-02T21:46:21.390Z,89.40
2017-10-02T21:48:48.921Z,89.90
2017-10-02T21:51:16.476Z,90.30
2017-10-02T21:53:44.007Z,90.40
2017-10-02T21:56:11.950Z,91.60
2017-10-02T21:58:39.489Z,91.60
2017-10-02T22:01:07.454Z,92.90
2017-10-02T22:03:34.990Z,92.90
2017-10-02T22:06:02.513Z,93.60
2017-10-02T22:08:30.071Z,94.20
2017-10-02T22:10:57.603Z,95.10
2017-10-02T22:13:25.154Z,95.10
2017-10-02T22:15:52.759Z,95.50
2017-10-02T22:18:20.312Z,95.90
2017-10-02T22:20:47.851Z,96.10
2017-10-02T22:23:15.414Z,96.50
2017-10-02T22:25:42.936Z,96.60
2017-10-02T22:28:10.505Z,96.70
2017-10-02T22:30:38.437Z,97.10
2017-10-02T22:33:05.968Z,97.10
2017-10-02T22:35:33.522Z,97.60
2017-10-02T22:38:01.077Z,97.30
2017-10-02T22:40:28.628Z,97.60
2017-10-02T22:42:56.567Z,97.80
2017-10-02T22:45:24.147Z,97.80
2017-10-02T22:47:51.678Z,97.70
2017-10-02T22:50:19.225Z,97.80
2017-10-02T22:52:46.760Z,97.80
2017-10-02T22:55:14.315Z,98.10
2017-10-02T22:57:41.855Z,98.30
2017-10-02T23:00:09.420Z,98.20
2017-10-02T23:02:37.461Z,98.30
2017-10-02T23:05:04.991Z,98.30
2017-10-02T23:07:32.941Z,98.30
2017-10-02T23:10:00.482Z,98.30
2017-10-02T23:12:28.124Z,98.30
2017-10-02T23:14:55.658Z,98.10
2017-10-02T23:17:23.229Z,98.20
2017-10-02T23:19:50.770Z,98.40
2017-10-02T23:22:18.333Z,98.40
2017-10-02T23:24:45.865Z,98.40
2017-10-02T23:27:13.810Z,98.40
2017-10-02T23:29:41.362Z,98.40
2017-10-02T23:32:08.931Z,98.70
2017-10-02T23:34:36.474Z,98.90
2017-10-02T23:37:04.050Z,98.60
2017-10-02T23:39:31.596Z,98.60
2017-10-02T23:41:59.140Z,98.60
2017-10-02T23:44:26.706Z,99.00
2017-10-02T23:46:54.254Z,99.10
2017-10-02T23:49:21.832Z,99.20
2017-10-02T23:51:49.401Z,99.20
2017-10-02T23:54:17.358Z,99.20
2017-10-02T23:56:44.895Z,99.30
2017-10-02T23:59:12.580Z,99.30
